createdAt,value
2019-02-17T00:01:19.061Z,12.90
2019-02-17T00:03:49.593Z,13.50
2019-02-17T00:06:20.138Z,13.53
2019-02-17T00:08:50.694Z,14.20
2019-02-17T00:11:21.264Z,13.40
2019-02-17T00:13:51.788Z,13.57
2019-02-17T00:16:22.318Z,13.40
2019-02-17T00:18:52.870Z,14.23
2019-02-17T00:21:26.456Z,14.10
2019-02-17T00:23:57.016Z,13.13
2019-02-17T00:26:27.621Z,13.87
2019-02-17T00:28:59.745Z,13.90
2019-02-17T00:31:30.591Z,13.97
2019-02-17T00:34:01.162Z,13.62
2019-02-17T00:36:31.683Z,13.70
2019-02-17T00:39:02.247Z,13.47
2019-02-17T00:41:32.775Z,14.10
2019-02-17T00:44:03.304Z,13.07
2019-02-17T00:46:33.811Z,13.50
2019-02-17T00:49:04.353Z,14.07
2019-02-17T00:51:37.190Z,13.93
2019-02-17T00:54:07.743Z,14.03
2019-02-17T00:56:38.295Z,12.73
2019-02-17T00:59:10.414Z,13.97
2019-02-17T01:01:41.301Z,13.40
2019-02-17T01:04:11.914Z,13.03
2019-02-17T01:06:42.871Z,13.40
2019-02-17T01:09:13.518Z,12.73
2019-02-17T01:11:44.190Z,12.57
2019-02-17T01:14:14.867Z,14.03
2019-02-17T01:16:45.690Z,13.97
2019-02-17T01:19:16.344Z,14.53
2019-02-17T01:21:47.060Z,13.93
2019-02-17T01:24:17.738Z,13.63
2019-02-17T01:26:48.653Z,14.60
2019-02-17T01:29:20.705Z,14.37
2019-02-17T01:31:51.536Z,15.30
2019-02-17T01:34:22.092Z,15.17
2019-02-17T01:36:55.403Z,14.57
2019-02-17T01:39:25.928Z,16.10
2019-02-17T01:41:56.479Z,15.13
2019-02-17T01:44:27.240Z,14.67
2019-02-17T01:46:57.780Z,15.10
2019-02-17T01:49:28.384Z,14.70
2019-02-17T01:51:58.901Z,15.80
2019-02-17T01:54:29.445Z,16.77
2019-02-17T01:57:00.011Z,15.57
2019-02-17T01:59:31.025Z,16.30
2019-02-17T02:02:01.720Z,15.53
2019-02-17T02:04:32.560Z,16.00
2019-02-17T02:07:03.211Z,15.90
2019-02-17T02:09:33.828Z,16.57
2019-02-17T02:12:04.545Z,16.77
2019-02-17T02:14:35.083Z,15.70
2019-02-17T02:17:05.696Z,17.47
2019-02-17T02:19:36.382Z,16.57
2019-02-17T02:22:07.020Z,16.63
2019-02-17T02:24:37.639Z,15.93
2019-02-17T02:27:08.224Z,16.87
2019-02-17T02:29:41.100Z,17.60
2019-02-17T02:32:10.896Z,17.23
2019-02-17T02:34:41.475Z,16.90
2019-02-17T02:37:12.011Z,16.50
2019-02-17T02:39:42.529Z,16.67
2019-02-17T02:42:13.110Z,15.70
2019-02-17T02:44:43.666Z,16.60
2019-02-17T02:47:14.240Z,17.37
2019-02-17T02:49:45.100Z,16.13
2019-02-17T02:52:15.629Z,16.33
2019-02-17T02:54:46.267Z,17.07
2019-02-17T02:57:16.866Z,16.77
2019-02-17T02:59:52.435Z,15.43
2019-02-17T03:02:19.907Z,15.47
2019-02-17T03:04:50.498Z,15.93
2019-02-17T03:07:22.223Z,15.23
2019-02-17T03:09:52.789Z,15.47
2019-02-17T03:12:23.348Z,15.43
2019-02-17T03:14:53.876Z,15.73
2019-02-17T03:17:24.494Z,15.13
2019-02-17T03:19:55.099Z,15.63
2019-02-17T03:22:26.071Z,15.07
2019-02-17T03:24:56.668Z,16.53
2019-02-17T03:27:30.898Z,14.73
2019-02-17T03:30:04.717Z,15.23
2019-02-17T03:32:33.713Z,14.37
2019-02-17T03:35:04.256Z,14.27
2019-02-17T03:37:34.831Z,14.77
2019-02-17T03:40:06.056Z,14.57
2019-02-17T03:42:36.618Z,13.73
2019-02-17T03:45:07.344Z,14.33
2019-02-17T03:47:37.892Z,14.17
2019-02-17T03:50:08.532Z,14.67
2019-02-17T03:52:39.103Z,13.83
2019-02-17T03:55:09.654Z,13.67
2019-02-17T03:57:40.166Z,12.80
2019-02-17T04:00:16.810Z,13.50
2019-02-17T04:02:45.059Z,13.23
2019-02-17T04:05:15.696Z,13.63
2019-02-17T04:07:46.259Z,13.50
2019-02-17T04:10:18.269Z,12.60
2019-02-17T04:12:49.635Z,14.58
2019-02-17T04:15:20.225Z,12.23
2019-02-17T04:17:50.844Z,14.10
2019-02-17T04:20:21.462Z,14.00
2019-02-17T04:22:52.060Z,14.47
2019-02-17T04:25:22.616Z,14.93
2019-02-17T04:27:53.171Z,15.57
2019-02-17T04:30:29.439Z,15.20
2019-02-17T04:32:56.135Z,14.47
2019-02-17T04:35:26.699Z,14.77
2019-02-17T04:37:57.255Z,16.17
2019-02-17T04:40:27.855Z,16.67
2019-02-17T04:42:58.421Z,16.90
2019-02-17T04:45:28.986Z,16.10
2019-02-17T04:47:59.531Z,15.60
2019-02-17T04:50:30.076Z,17.67
2019-02-17T04:53:00.636Z,15.70
2019-02-17T04:55:31.223Z,18.23
2019-02-17T04:58:01.770Z,17.37
2019-02-17T05:00:40.121Z,16.20
2019-02-17T05:03:07.312Z,16.63
2019-02-17T05:05:38.006Z,18.00
2019-02-17T05:08:08.612Z,16.43
2019-02-17T05:10:39.212Z,18.17
2019-02-17T05:13:09.798Z,16.73
2019-02-17T05:15:40.317Z,18.43
2019-02-17T05:18:10.853Z,18.47
2019-02-17T05:20:41.431Z,18.87
2019-02-17T05:23:12.139Z,17.90
2019-02-17T05:25:42.685Z,17.70
2019-02-17T05:28:13.252Z,17.67
2019-02-17T05:30:52.175Z,17.70
2019-02-17T05:33:18.610Z,19.73
2019-02-17T05:35:49.798Z,18.80
2019-02-17T05:38:20.362Z,19.77
2019-02-17T05:40:50.910Z,19.83
2019-02-17T05:43:21.635Z,20.90
2019-02-17T05:45:52.177Z,19.07
2019-02-17T05:48:22.696Z,20.97
2019-02-17T05:50:53.291Z,19.77
2019-02-17T05:53:23.824Z,21.03
2019-02-17T05:55:54.334Z,20.33
2019-02-17T05:58:24.876Z,21.40
2019-02-17T06:01:03.369Z,20.97
2019-02-17T06:03:27.586Z,19.80
2019-02-17T06:05:58.133Z,20.43
2019-02-17T06:08:28.788Z,20.20
2019-02-17T06:10:59.310Z,20.30
2019-02-17T06:13:29.872Z,20.90
2019-02-17T06:16:00.464Z,19.17
2019-02-17T06:18:31.026Z,18.87
2019-02-17T06:21:01.547Z,18.93
2019-02-17T06:23:32.066Z,17.73
2019-02-17T06:26:02.709Z,17.73
2019-02-17T06:28:33.292Z,17.83
2019-02-17T06:31:13.742Z,18.10
2019-02-17T06:33:36.156Z,15.87
2019-02-17T06:36:09.564Z,16.73
2019-02-17T06:38:40.135Z,15.30
2019-02-17T06:41:10.755Z,14.63
2019-02-17T06:43:41.278Z,14.90
2019-02-17T06:46:14.580Z,13.80
2019-02-17T06:48:45.178Z,14.23
2019-02-17T06:51:15.805Z,13.50
2019-02-17T06:53:46.432Z,13.47
2019-02-17T06:56:25.489Z,13.93
2019-02-17T06:58:56.158Z,17.05
2019-02-17T07:01:26.742Z,13.77
2019-02-17T07:03:57.550Z,12.83
2019-02-17T07:06:49.943Z,12.90
2019-02-17T07:09:20.495Z,11.97
2019-02-17T07:11:51.054Z,12.27
2019-02-17T07:14:22.430Z,12.37
2019-02-17T07:16:53.116Z,12.23
2019-02-17T07:19:23.658Z,11.83
2019-02-17T07:21:54.309Z,11.47
2019-02-17T07:24:24.878Z,12.07
2019-02-17T07:26:55.432Z,10.90
2019-02-17T07:29:26.102Z,11.50
2019-02-17T07:31:56.649Z,10.43
2019-02-17T07:34:27.204Z,12.20
2019-02-17T07:36:57.736Z,11.37
2019-02-17T07:39:28.282Z,10.87
2019-02-17T07:42:01.694Z,11.20
2019-02-17T07:44:32.255Z,11.27
2019-02-17T07:47:03.420Z,11.33
2019-02-17T07:49:34.969Z,10.77
2019-02-17T07:52:05.630Z,10.70
2019-02-17T07:54:37.642Z,11.30
2019-02-17T07:57:10.059Z,11.23
2019-02-17T07:59:45.834Z,11.23
2019-02-17T08:02:22.328Z,10.77
2019-02-17T08:04:54.522Z,10.57
2019-02-17T08:07:28.666Z,10.67
2019-02-17T08:10:00.727Z,10.70
2019-02-17T08:12:31.636Z,9.97
2019-02-17T08:15:02.144Z,10.10
2019-02-17T08:17:32.675Z,10.63
2019-02-17T08:20:03.372Z,10.40
2019-02-17T08:22:33.992Z,11.07
2019-02-17T08:25:05.656Z,10.43
2019-02-17T08:27:36.551Z,10.20
2019-02-17T08:30:08.284Z,9.93
2019-02-17T08:32:39.576Z,10.40
2019-02-17T08:35:10.496Z,11.50
2019-02-17T08:37:41.069Z,11.03
2019-02-17T08:40:11.656Z,10.37
2019-02-17T08:42:42.226Z,9.87
2019-02-17T08:45:15.561Z,11.17
2019-02-17T08:47:46.092Z,10.53
2019-02-17T08:50:16.659Z,11.50
2019-02-17T08:52:47.232Z,10.83
2019-02-17T08:55:21.168Z,11.07
2019-02-17T08:57:51.675Z,10.90
2019-02-17T09:00:22.242Z,11.20
2019-02-17T09:02:52.811Z,17.93
2019-02-17T09:05:23.366Z,11.80
2019-02-17T09:07:53.863Z,13.40
2019-02-17T09:10:24.421Z,11.83
2019-02-17T09:12:57.743Z,12.03
2019-02-17T09:15:28.288Z,11.97
2019-02-17T09:17:58.836Z,11.77
2019-02-17T09:20:29.396Z,13.00
2019-02-17T09:22:59.957Z,11.90
2019-02-17T09:25:30.474Z,12.10
2019-02-17T09:28:01.015Z,12.47
2019-02-17T09:30:32.540Z,12.43
2019-02-17T09:33:03.087Z,12.57
2019-02-17T09:35:33.651Z,11.23
2019-02-17T09:38:04.245Z,11.53
2019-02-17T09:40:34.775Z,11.43
2019-02-17T09:43:05.526Z,10.77
2019-02-17T09:45:36.081Z,11.37
2019-02-17T09:48:06.612Z,11.20
2019-02-17T09:50:37.218Z,10.10
2019-02-17T09:53:07.754Z,10.63
2019-02-17T09:55:38.983Z,9.77
2019-02-17T09:58:13.408Z,9.87
2019-02-17T10:00:43.947Z,10.00
2019-02-17T10:03:14.780Z,10.87
2019-02-17T10:05:45.406Z,9.20
2019-02-17T10:08:15.930Z,9.63
2019-02-17T10:10:46.472Z,8.83
2019-02-17T10:13:17.028Z,9.73
2019-02-17T10:15:47.616Z,9.43
2019-02-17T10:18:18.282Z,8.87
2019-02-17T10:20:48.791Z,9.00
2019-02-17T10:23:19.382Z,9.57
2019-02-17T10:25:49.959Z,8.40
2019-02-17T10:28:20.515Z,8.80
2019-02-17T10:30:51.499Z,8.13
2019-02-17T10:33:22.530Z,8.27
2019-02-17T10:35:53.055Z,7.60
2019-02-17T10:38:23.616Z,7.70
2019-02-17T10:40:54.119Z,8.00
2019-02-17T10:43:24.628Z,7.83
2019-02-17T10:45:55.204Z,7.07
2019-02-17T10:48:26.067Z,7.57
2019-02-17T10:50:56.569Z,7.87
2019-02-17T10:53:27.119Z,7.77
2019-02-17T10:55:57.656Z,7.07
2019-02-17T10:58:28.198Z,8.00
2019-02-17T11:01:01.004Z,7.97
2019-02-17T11:03:31.582Z,7.00
2019-02-17T11:06:04.256Z,7.83
2019-02-17T11:08:34.768Z,6.67
2019-02-17T11:11:05.351Z,7.20
2019-02-17T11:13:38.543Z,7.17
2019-02-17T11:16:09.082Z,6.57
2019-02-17T11:18:39.612Z,7.07
2019-02-17T11:21:10.155Z,6.53
2019-02-17T11:23:40.702Z,6.67
2019-02-17T11:26:11.307Z,6.40
2019-02-17T11:28:42.232Z,6.33
2019-02-17T11:31:12.787Z,6.10
2019-02-17T11:33:43.345Z,6.83
2019-02-17T11:36:13.941Z,8.20
2019-02-17T11:38:44.540Z,7.13
2019-02-17T11:41:15.171Z,8.43
2019-02-17T11:43:45.777Z,6.87
2019-02-17T11:46:16.339Z,7.10
2019-02-17T11:48:47.000Z,7.43
2019-02-17T11:51:17.537Z,6.83
2019-02-17T11:53:48.098Z,6.80
2019-02-17T11:56:18.623Z,6.53
2019-02-17T11:58:49.218Z,6.80
2019-02-17T12:01:38.855Z,6.10
2019-02-17T12:04:09.499Z,6.27
2019-02-17T12:06:40.131Z,6.27
2019-02-17T12:09:11.923Z,5.63
2019-02-17T12:11:42.474Z,4.53
2019-02-17T12:14:13.041Z,3.93
2019-02-17T12:16:43.599Z,4.90
2019-02-17T12:19:14.180Z,3.83
2019-02-17T12:21:58.450Z,3.87
2019-02-17T12:25:02.491Z,3.77
2019-02-17T12:27:52.457Z,3.60
2019-02-17T12:30:24.501Z,3.60
2019-02-17T12:32:55.213Z,3.13
2019-02-17T12:35:25.727Z,3.50
2019-02-17T12:37:56.240Z,3.43
2019-02-17T12:40:26.786Z,3.07
2019-02-17T12:42:57.783Z,3.13
2019-02-17T12:45:28.777Z,3.30
2019-02-17T12:47:59.296Z,2.87
2019-02-17T12:50:29.852Z,3.07
2019-02-17T12:53:00.356Z,2.60
2019-02-17T12:55:30.903Z,2.53
2019-02-17T12:58:01.825Z,2.30
2019-02-17T13:00:32.464Z,2.40
2019-02-17T13:03:03.000Z,2.43
2019-02-17T13:05:33.703Z,2.70
2019-02-17T13:08:04.255Z,2.63
2019-02-17T13:10:34.779Z,2.20
2019-02-17T13:13:05.414Z,2.50
2019-02-17T13:15:35.960Z,15.80
2019-02-17T13:18:06.479Z,3.20
2019-02-17T13:20:37.025Z,20.17
2019-02-17T13:23:07.583Z,22.20
2019-02-17T13:25:38.440Z,17.03
2019-02-17T13:28:09.143Z,4.60
2019-02-17T13:30:39.648Z,2.53
2019-02-17T13:33:10.227Z,9.53
2019-02-17T13:35:40.770Z,3.10
2019-02-17T13:38:11.336Z,2.60
2019-02-17T13:40:41.885Z,2.10
2019-02-17T13:43:12.400Z,2.60
2019-02-17T13:45:44.779Z,2.50
2019-02-17T13:48:15.453Z,2.20
2019-02-17T13:50:51.812Z,2.33
2019-02-17T13:53:22.487Z,2.17
2019-02-17T13:55:52.987Z,2.50
2019-02-17T13:58:23.523Z,2.70
2019-02-17T14:00:54.028Z,2.10
2019-02-17T14:03:24.573Z,2.80
2019-02-17T14:05:55.131Z,2.60
2019-02-17T14:08:26.706Z,2.63
2019-02-17T14:10:57.412Z,2.40
2019-02-17T14:13:28.427Z,2.53
2019-02-17T14:15:59.864Z,2.50
2019-02-17T14:18:30.821Z,2.13
2019-02-17T14:21:01.337Z,2.20
2019-02-17T14:23:32.208Z,2.73
2019-02-17T14:26:02.723Z,2.43
2019-02-17T14:28:33.279Z,2.70
2019-02-17T14:31:03.799Z,2.60
2019-02-17T14:33:34.336Z,2.67
2019-02-17T14:36:04.875Z,2.50
2019-02-17T14:38:35.735Z,2.80
2019-02-17T14:41:06.284Z,2.90
2019-02-17T14:43:36.822Z,2.87
2019-02-17T14:46:07.470Z,2.80
2019-02-17T14:48:38.472Z,2.70
2019-02-17T14:51:09.009Z,2.60
2019-02-17T14:53:39.563Z,2.83
2019-02-17T14:56:10.466Z,4.17
2019-02-17T14:58:41.011Z,3.13
2019-02-17T15:01:11.540Z,3.00
2019-02-17T15:03:42.059Z,2.80
2019-02-17T15:06:12.751Z,3.40
2019-02-17T15:08:44.646Z,3.20
2019-02-17T15:11:15.188Z,3.13
2019-02-17T15:13:45.732Z,3.00
2019-02-17T15:16:16.372Z,3.23
2019-02-17T15:18:47.458Z,3.47
2019-02-17T15:21:18.138Z,3.50
2019-02-17T15:23:48.687Z,3.07
2019-02-17T15:26:19.245Z,3.03
2019-02-17T15:28:51.387Z,3.00
2019-02-17T15:31:22.159Z,2.67
2019-02-17T15:33:53.040Z,3.60
2019-02-17T15:36:23.547Z,3.23
2019-02-17T15:38:54.097Z,3.20
2019-02-17T15:41:24.609Z,2.90
2019-02-17T15:43:55.167Z,3.30
2019-02-17T15:46:25.691Z,2.97
2019-02-17T15:48:58.763Z,3.00
2019-02-17T15:51:29.327Z,3.13
2019-02-17T15:53:59.892Z,2.87
2019-02-17T15:56:30.412Z,2.97
2019-02-17T15:59:00.963Z,2.87
2019-02-17T16:01:31.471Z,2.80
2019-02-17T16:04:02.018Z,2.80
2019-02-17T16:06:32.604Z,3.03
2019-02-17T16:09:04.292Z,2.93
2019-02-17T16:11:34.870Z,3.40
2019-02-17T16:14:05.454Z,3.00
2019-02-17T16:16:35.984Z,3.70
2019-02-17T16:19:06.523Z,3.33
2019-02-17T16:21:37.033Z,2.90
2019-02-17T16:24:09.160Z,2.50
2019-02-17T16:26:39.652Z,2.60
2019-02-17T16:29:10.200Z,2.50
2019-02-17T16:31:40.868Z,2.30
2019-02-17T16:34:11.791Z,2.77
2019-02-17T16:36:42.443Z,3.63
2019-02-17T16:39:13.516Z,3.03
2019-02-17T16:41:44.535Z,3.20
2019-02-17T16:44:15.094Z,3.07
2019-02-17T16:46:45.592Z,5.60
2019-02-17T16:49:16.139Z,4.70
2019-02-17T16:51:48.267Z,4.43
2019-02-17T16:54:18.782Z,5.03
2019-02-17T16:56:49.307Z,3.13
2019-02-17T16:59:20.728Z,3.37
2019-02-17T17:01:51.228Z,2.50
2019-02-17T17:04:21.765Z,2.60
2019-02-17T17:06:52.295Z,3.07
2019-02-17T17:09:22.824Z,2.73
2019-02-17T17:11:53.591Z,3.07
2019-02-17T17:14:24.109Z,3.53
2019-02-17T17:16:54.633Z,4.20
2019-02-17T17:19:25.149Z,3.90
2019-02-17T17:21:55.687Z,3.50
2019-02-17T17:24:26.214Z,4.27
2019-02-17T17:26:56.719Z,4.63
2019-02-17T17:29:27.277Z,4.57
2019-02-17T17:31:57.803Z,4.17
2019-02-17T17:34:28.368Z,3.83
2019-02-17T17:36:58.884Z,4.37
2019-02-17T17:39:29.389Z,4.67
2019-02-17T17:42:00.306Z,4.87
2019-02-17T17:44:30.876Z,4.17
2019-02-17T17:47:01.365Z,4.17
2019-02-17T17:49:31.911Z,4.00
2019-02-17T17:52:02.419Z,3.90
2019-02-17T17:54:32.957Z,3.63
2019-02-17T17:57:06.373Z,4.07
2019-02-17T17:59:37.216Z,4.20
2019-02-17T18:02:07.819Z,4.10
2019-02-17T18:04:40.354Z,4.70
2019-02-17T18:07:23.535Z,4.77
2019-02-17T18:09:56.365Z,3.73
2019-02-17T18:12:28.444Z,4.07
2019-02-17T18:14:58.996Z,5.20
2019-02-17T18:17:29.676Z,3.80
2019-02-17T18:20:03.073Z,3.27
2019-02-17T18:22:48.346Z,4.57
2019-02-17T18:25:14.222Z,4.47
2019-02-17T18:27:44.942Z,3.80
2019-02-17T18:30:16.723Z,4.30
2019-02-17T18:32:48.028Z,2.50
2019-02-17T18:35:20.527Z,4.17
2019-02-17T18:37:54.318Z,6.40
2019-02-17T18:40:26.910Z,5.80
2019-02-17T18:42:58.531Z,5.70
2019-02-17T18:45:29.125Z,8.33
2019-02-17T18:47:59.736Z,4.70
2019-02-17T18:50:30.300Z,5.90
2019-02-17T18:53:00.823Z,4.83
2019-02-17T18:55:31.405Z,6.43
2019-02-17T18:58:01.980Z,7.97
2019-02-17T19:00:33.930Z,10.80
2019-02-17T19:03:05.394Z,9.30
2019-02-17T19:05:36.015Z,11.43
2019-02-17T19:08:07.002Z,5.20
2019-02-17T19:10:37.516Z,5.33
2019-02-17T19:13:08.602Z,8.87
2019-02-17T19:15:39.175Z,7.27
2019-02-17T19:18:09.766Z,14.43
2019-02-17T19:20:40.518Z,6.40
2019-02-17T19:23:11.126Z,9.05
2019-02-17T19:25:41.643Z,5.63
2019-02-17T19:28:12.313Z,6.87
2019-02-17T19:30:42.765Z,11.07
2019-02-17T19:33:13.335Z,9.57
2019-02-17T19:35:43.897Z,7.17
2019-02-17T19:38:14.475Z,10.03
2019-02-17T19:40:45.020Z,12.30
2019-02-17T19:43:15.559Z,8.37
2019-02-17T19:45:48.792Z,13.83
2019-02-17T19:48:19.311Z,7.13
2019-02-17T19:50:49.815Z,8.37
2019-02-17T19:53:20.390Z,8.23
2019-02-17T19:55:51.032Z,5.93
2019-02-17T19:58:21.604Z,4.97
2019-02-17T20:00:52.755Z,5.70
2019-02-17T20:03:38.240Z,8.53
2019-02-17T20:06:08.907Z,9.90
2019-02-17T20:08:39.457Z,12.60
2019-02-17T20:11:10.082Z,8.40
2019-02-17T20:13:42.366Z,8.73
2019-02-17T20:16:13.013Z,9.87
2019-02-17T20:18:43.906Z,13.93
2019-02-17T20:21:14.436Z,10.80
2019-02-17T20:23:45.015Z,10.27
2019-02-17T20:26:15.668Z,9.00
2019-02-17T20:28:46.187Z,11.57
2019-02-17T20:31:17.353Z,11.90
2019-02-17T20:33:47.933Z,11.53
2019-02-17T20:36:18.464Z,8.30
2019-02-17T20:38:49.014Z,6.80
2019-02-17T20:41:19.567Z,7.10
2019-02-17T20:43:50.204Z,7.60
2019-02-17T20:46:20.711Z,5.37
2019-02-17T20:48:52.429Z,4.57
2019-02-17T20:51:23.601Z,4.23
2019-02-17T20:53:54.676Z,4.00
2019-02-17T20:56:25.244Z,3.40
2019-02-17T20:58:55.958Z,3.30
2019-02-17T21:01:26.968Z,4.13
2019-02-17T21:03:57.941Z,3.70
2019-02-17T21:06:28.681Z,3.20
2019-02-17T21:08:59.208Z,3.60
2019-02-17T21:11:29.752Z,4.20
2019-02-17T21:14:00.350Z,3.40
2019-02-17T21:16:31.568Z,3.80
2019-02-17T21:19:02.118Z,4.00
2019-02-17T21:21:33.313Z,3.90
2019-02-17T21:24:03.868Z,3.60
2019-02-17T21:26:34.462Z,4.00
2019-02-17T21:29:05.011Z,4.03
2019-02-17T21:31:35.594Z,4.20
2019-02-17T21:34:06.155Z,4.50
2019-02-17T21:36:36.736Z,4.60
2019-02-17T21:39:07.662Z,4.40
2019-02-17T21:41:38.191Z,4.80
2019-02-17T21:44:08.734Z,4.63
2019-02-17T21:46:39.311Z,4.70
2019-02-17T21:49:09.810Z,4.27
2019-02-17T21:51:40.394Z,5.13
2019-02-17T21:54:11.132Z,4.73
2019-02-17T21:56:41.661Z,4.43
2019-02-17T21:59:12.243Z,4.17
2019-02-17T22:01:42.808Z,4.33
2019-02-17T22:04:13.557Z,4.63
2019-02-17T22:06:44.125Z,4.80
2019-02-17T22:09:14.665Z,4.17
2019-02-17T22:11:45.223Z,4.83
2019-02-17T22:14:15.802Z,5.70
2019-02-17T22:16:46.367Z,6.53
2019-02-17T22:19:16.872Z,6.10
2019-02-17T22:21:47.393Z,4.73
2019-02-17T22:24:17.924Z,4.43
2019-02-17T22:26:48.516Z,4.03
2019-02-17T22:29:19.039Z,4.40
2019-02-17T22:31:49.630Z,4.67
2019-02-17T22:34:20.123Z,4.80
2019-02-17T22:36:50.651Z,5.87
2019-02-17T22:39:21.207Z,4.90
2019-02-17T22:41:52.073Z,4.87
2019-02-17T22:44:22.660Z,5.30
2019-02-17T22:46:53.178Z,4.63
2019-02-17T22:49:23.737Z,4.70
2019-02-17T22:51:55.220Z,5.20
2019-02-17T22:54:25.847Z,4.93
2019-02-17T22:56:56.403Z,5.43
2019-02-17T22:59:26.935Z,6.03
2019-02-17T23:01:57.452Z,5.60
2019-02-17T23:04:27.988Z,5.97
2019-02-17T23:06:58.514Z,5.00
2019-02-17T23:09:29.158Z,4.87
2019-02-17T23:11:59.695Z,4.93
2019-02-17T23:14:30.358Z,4.70
2019-02-17T23:17:00.913Z,5.37
2019-02-17T23:19:31.515Z,5.23
2019-02-17T23:22:02.467Z,5.17
2019-02-17T23:24:33.233Z,4.97
2019-02-17T23:27:04.206Z,5.80
2019-02-17T23:29:34.814Z,5.13
2019-02-17T23:32:05.391Z,6.60
2019-02-17T23:34:35.957Z,6.00
2019-02-17T23:37:06.511Z,5.87
2019-02-17T23:39:37.019Z,5.27
2019-02-17T23:42:07.586Z,5.53
2019-02-17T23:44:41.254Z,5.47
2019-02-17T23:47:11.858Z,5.63
2019-02-17T23:49:42.389Z,5.10
2019-02-17T23:52:12.911Z,5.17
2019-02-17T23:54:43.444Z,5.97
2019-02-17T23:57:13.988Z,8.23
2019-02-17T23:59:44.573Z,7.53
